Time;durP1;ratioP1;P1;durP2;ratioP2;P2;SDS_P1;SDS_P2;PMS_P1;PMS_P2;Temp;Humidity;BMP_temperature;BMP_pressure;BME280_temperature;BME280_humidity;BME280_pressure;Samples;Min_cycle;Max_cycle;Signal;HPM_P1;HPM_P2
2022/06/13 00:00:12;;;;;;;;;3.25;2.00;;;;;20.37;34.79;101830.66;4979851;28;45273;-48
2022/06/13 00:02:37;;;;;;;;;2.00;1.75;;;;;20.30;34.91;101824.66;4979590;28;45290;-50
2022/06/13 00:05:06;;;;;;;;;4.00;3.50;;;;;20.23;34.73;101826.72;4979021;28;45386;-49
2022/06/13 00:07:31;;;;;;;;;3.00;1.00;;;;;20.20;34.91;101829.50;4979466;28;47490;-49
2022/06/13 00:09:57;;;;;;;;;3.50;3.00;;;;;20.16;35.05;101825.19;4979526;28;45180;-51
2022/06/13 00:12:23;;;;;;;;;2.50;1.50;;;;;20.11;34.55;101828.06;4978378;28;45245;-51
2022/06/13 00:14:48;;;;;;;;;3.75;2.75;;;;;20.09;35.08;101827.22;4979542;28;45397;-52
2022/06/13 00:17:13;;;;;;;;;4.00;3.00;;;;;20.01;34.73;101823.97;4981731;28;50168;-50
2022/06/13 00:19:38;;;;;;;;;5.00;2.75;;;;;19.96;34.82;101832.16;4982640;28;45211;-48
2022/06/13 00:22:05;;;;;;;;;3.00;3.00;;;;;19.90;34.88;101827.03;4982982;28;45488;-51
2022/06/13 00:24:30;;;;;;;;;3.00;2.25;;;;;19.85;35.01;101829.00;4982684;28;45362;-51
2022/06/13 00:26:56;;;;;;;;;3.75;2.75;;;;;19.80;35.34;101833.59;4982580;28;46310;-49
2022/06/13 00:29:21;;;;;;;;;3.25;2.00;;;;;19.75;35.37;101825.75;4981488;28;45330;-49
2022/06/13 00:31:46;;;;;;;;;2.25;2.00;;;;;19.73;35.55;101829.41;4982804;28;45374;-47
2022/06/13 00:34:12;;;;;;;;;2.25;2.00;;;;;19.67;35.38;101830.47;4982677;28;45279;-49
2022/06/13 00:36:37;;;;;;;;;3.75;3.00;;;;;19.67;35.21;101826.94;4982603;28;46257;-51
2022/06/13 00:39:03;;;;;;;;;2.50;2.00;;;;;19.61;35.42;101823.59;4982628;28;45282;-50
2022/06/13 00:41:34;;;;;;;;;3.50;3.50;;;;;19.58;35.88;101833.47;4982781;28;45259;-49
2022/06/13 00:44:00;;;;;;;;;3.00;3.00;;;;;19.53;35.86;101830.97;4982472;28;45408;-48
2022/06/13 00:46:32;;;;;;;;;3.50;3.00;;;;;19.49;36.15;101829.34;4982196;28;45333;-50
2022/06/13 00:49:08;;;;;;;;;5.75;5.00;;;;;19.46;35.65;101827.66;4982305;28;45246;-48
2022/06/13 00:51:40;;;;;;;;;3.00;3.00;;;;;19.42;35.91;101825.13;4982456;28;45358;-50
2022/06/13 00:54:06;;;;;;;;;3.50;2.75;;;;;19.42;36.22;101822.47;4982434;28;45720;-50
2022/06/13 00:56:35;;;;;;;;;4.00;3.75;;;;;19.39;36.17;101823.44;4982321;28;45303;-50
2022/06/13 00:59:05;;;;;;;;;3.00;2.00;;;;;19.36;36.18;101820.91;4982195;28;45345;-52
2022/06/13 01:01:32;;;;;;;;;3.25;3.25;;;;;19.34;36.23;101817.41;4982359;28;45227;-52
2022/06/13 01:04:01;;;;;;;;;6.00;3.75;;;;;19.33;36.68;101820.97;4981572;28;45230;-51
2022/06/13 01:06:29;;;;;;;;;3.00;3.00;;;;;19.29;36.71;101808.69;4980916;28;46133;-51
2022/06/13 01:08:55;;;;;;;;;2.25;2.00;;;;;19.28;36.96;101813.16;4980853;28;45366;-49
2022/06/13 01:11:24;;;;;;;;;4.50;2.50;;;;;19.25;36.56;101807.91;4981142;28;45312;-48
2022/06/13 01:14:04;;;;;;;;;3.75;3.00;;;;;19.21;36.79;101806.28;4982023;28;45238;-47
2022/06/13 01:16:35;;;;;;;;;6.75;4.00;;;;;19.17;37.07;101805.53;4981920;28;46275;-50
2022/06/13 01:19:33;;;;;;;;;5.50;3.25;;;;;19.13;37.11;101801.22;4981527;28;45461;-51
2022/06/13 01:22:10;;;;;;;;;6.50;3.75;;;;;19.09;37.14;101802.22;4981976;28;45306;-49
2022/06/13 01:24:47;;;;;;;;;4.50;3.00;;;;;19.07;37.22;101798.75;4981858;28;45273;-50
2022/06/13 01:27:50;;;;;;;;;4.00;4.00;;;;;19.05;37.02;101799.75;4980921;28;45281;-49
2022/06/13 01:30:40;;;;;;;;;4.00;4.00;;;;;19.02;37.07;101802.47;4958581;28;45201;-50
2022/06/13 01:33:23;;;;;;;;;5.00;5.00;;;;;18.99;37.37;101800.78;4980549;28;45397;-50
2022/06/13 01:36:15;;;;;;;;;3.25;3.00;;;;;18.95;37.31;101794.69;4981739;28;45176;-50
2022/06/13 01:38:59;;;;;;;;;4.00;4.00;;;;;18.93;37.46;101793.91;4981752;28;45235;-51
2022/06/13 01:41:41;;;;;;;;;3.75;3.75;;;;;18.90;37.66;101785.09;4980193;28;45259;-51
2022/06/13 01:44:17;;;;;;;;;3.00;2.00;;;;;18.90;37.51;101790.41;4981631;28;45419;-49
2022/06/13 01:47:01;;;;;;;;;4.25;4.00;;;;;18.89;37.70;101786.00;4981158;28;45324;-47
2022/06/13 01:49:31;;;;;;;;;3.00;3.00;;;;;18.87;37.63;101793.16;4981267;28;45372;-48
2022/06/13 01:52:11;;;;;;;;;6.50;4.75;;;;;18.86;37.36;101799.44;4980196;28;45240;-49
2022/06/13 01:54:54;;;;;;;;;3.50;3.00;;;;;18.82;37.82;101796.84;4981566;28;45263;-47
2022/06/13 01:57:32;;;;;;;;;5.00;4.00;;;;;18.81;37.73;101799.56;4981299;28;45440;-51
2022/06/13 02:00:09;;;;;;;;;3.75;3.50;;;;;18.80;37.71;101806.72;4981425;28;46326;-52
2022/06/13 02:02:40;;;;;;;;;4.00;4.00;;;;;18.78;37.85;101803.22;4981105;28;45253;-49
2022/06/13 02:05:21;;;;;;;;;4.00;4.00;;;;;18.77;38.18;101805.94;4981012;28;45333;-48
2022/06/13 02:07:52;;;;;;;;;4.75;4.75;;;;;18.77;38.04;101805.94;4981174;28;45259;-50
2022/06/13 02:10:23;;;;;;;;;4.00;4.00;;;;;18.75;38.11;101800.63;4981113;28;45437;-47
2022/06/13 02:12:54;;;;;;;;;5.00;5.00;;;;;18.73;38.05;101794.50;4980001;28;45472;-47
2022/06/13 02:15:28;;;;;;;;;3.00;3.00;;;;;18.73;38.20;101802.50;4980985;28;45344;-48
2022/06/13 02:17:59;;;;;;;;;4.50;3.00;;;;;18.73;38.23;101799.81;4980932;28;45491;-49
2022/06/13 02:20:31;;;;;;;;;4.00;4.00;;;;;18.71;38.23;101800.78;4980695;28;46685;-48
2022/06/13 02:23:00;;;;;;;;;5.00;4.00;;;;;18.67;38.36;101800.03;4981298;28;45474;-48
2022/06/13 02:25:31;;;;;;;;;5.25;4.00;;;;;18.68;38.33;101812.41;4980860;28;45318;-50
2022/06/13 02:28:09;;;;;;;;;3.75;3.50;;;;;18.64;38.59;101803.66;4980962;28;45525;-50
2022/06/13 02:30:43;;;;;;;;;4.00;4.00;;;;;18.62;38.46;101804.63;4980990;28;45234;-48
2022/06/13 02:33:16;;;;;;;;;5.50;4.25;;;;;18.58;38.62;101811.81;4979158;28;45248;-49
2022/06/13 02:36:09;;;;;;;;;5.75;4.50;;;;;18.55;38.58;101800.41;4980926;28;45298;-49
2022/06/13 02:38:41;;;;;;;;;4.50;4.00;;;;;18.51;38.75;101797.84;4947113;28;45368;-50
2022/06/13 02:41:16;;;;;;;;;7.25;4.00;;;;;18.48;39.03;101800.56;4980668;28;45373;-48
2022/06/13 02:43:55;;;;;;;;;7.50;6.25;;;;;18.44;39.05;101804.25;4980488;28;45334;-50
2022/06/13 02:46:30;;;;;;;;;4.25;2.50;;;;;18.40;39.27;101802.63;4980653;28;45337;-52
2022/06/13 02:49:06;;;;;;;;;5.50;5.50;;;;;18.38;39.46;101798.22;4979468;28;45240;-46
2022/06/13 02:51:34;;;;;;;;;2.00;1.75;;;;;18.33;39.46;101807.22;4979200;28;47125;-47
2022/06/13 02:54:13;;;;;;;;;7.00;3.50;;;;;18.29;39.39;101799.41;4980610;28;45458;-47
2022/06/13 03:00:10;;;;;;;;;5.50;4.75;;;;;18.24;39.72;101803.97;4980440;28;45176;-45
2022/06/13 03:02:51;;;;;;;;;5.50;4.50;;;;;18.19;39.40;101798.81;4980099;28;46195;-50
2022/06/13 03:05:35;;;;;;;;;5.00;4.00;;;;;18.18;39.64;101808.56;4979935;28;45460;-50
2022/06/13 03:08:34;;;;;;;;;7.75;5.50;;;;;18.17;39.73;101806.81;4980651;28;45291;-46
2022/06/13 03:11:16;;;;;;;;;6.75;5.25;;;;;18.14;39.95;101809.56;4980405;28;45510;-47
2022/06/13 03:14:07;;;;;;;;;5.50;5.25;;;;;18.13;39.79;101815.81;4971980;28;47454;-46
2022/06/13 03:17:00;;;;;;;;;7.00;6.50;;;;;18.11;40.19;101812.34;4980277;28;45410;-45
2022/06/13 03:19:43;;;;;;;;;7.50;5.00;;;;;18.09;40.23;101814.16;4980118;28;45437;-47
2022/06/13 03:22:57;;;;;;;;;7.50;6.00;;;;;18.07;40.28;101817.78;4980160;28;45167;-46
2022/06/13 03:25:40;;;;;;;;;4.75;4.50;;;;;17.99;40.33;101807.34;4955343;28;46199;-46
2022/06/13 03:28:12;;;;;;;;;11.50;8.00;;;;;18.00;40.33;101819.75;4980139;28;45563;-47
2022/06/13 03:30:43;;;;;;;;;6.50;6.50;;;;;17.98;40.29;101827.75;4980063;28;45429;-48
2022/06/13 03:36:00;;;;;;;;;7.75;5.00;;;;;17.94;40.30;101830.56;4980151;28;45819;-48
2022/06/13 03:38:32;;;;;;;;;7.50;6.00;;;;;17.93;40.82;101834.09;4979898;28;45289;-48
2022/06/13 03:41:01;;;;;;;;;12.50;7.25;;;;;17.93;40.75;101839.41;4980211;28;45401;-48
2022/06/13 03:43:38;;;;;;;;;8.00;6.00;;;;;17.89;40.73;101832.44;4979786;28;45430;-50
2022/06/13 03:46:12;;;;;;;;;6.75;6.50;;;;;17.84;40.91;101830.75;4979797;28;45226;-52
2022/06/13 03:48:45;;;;;;;;;6.25;6.25;;;;;17.85;40.94;101837.81;4979757;28;45226;-49
2022/06/13 03:51:20;;;;;;;;;11.00;9.00;;;;;17.84;40.80;101836.06;4981054;28;45261;-52
2022/06/13 03:54:17;;;;;;;;;13.00;8.75;;;;;17.83;41.02;101830.81;4983317;28;45385;-46
2022/06/13 03:57:10;;;;;;;;;6.25;6.25;;;;;17.83;41.10;101834.31;4979812;28;46359;-51
2022/06/13 03:59:56;;;;;;;;;7.50;6.25;;;;;17.83;41.09;101836.97;4983174;28;45192;-50
2022/06/13 04:02:28;;;;;;;;;4.25;4.25;;;;;17.83;41.01;101836.97;4983255;28;45460;-46
2022/06/13 04:04:54;;;;;;;;;6.25;4.25;;;;;17.82;41.08;101832.59;4982609;28;45466;-49
2022/06/13 04:07:22;;;;;;;;;8.00;7.00;;;;;17.84;40.88;101840.53;4982927;28;45961;-47
2022/06/13 04:09:53;;;;;;;;;5.75;5.50;;;;;17.84;41.12;101835.22;4983235;28;45390;-50
2022/06/13 04:12:40;;;;;;;;;7.00;4.75;;;;;17.84;41.20;101841.38;4983128;28;45258;-51
2022/06/13 04:15:21;;;;;;;;;8.00;7.25;;;;;17.82;41.17;101845.91;4982928;28;45266;-51
2022/06/13 04:17:56;;;;;;;;;7.00;5.75;;;;;17.80;41.56;101844.19;4982742;28;47155;-51
2022/06/13 04:20:34;;;;;;;;;11.00;10.50;;;;;17.76;41.32;101843.41;4982449;28;45536;-49
2022/06/13 04:23:11;;;;;;;;;10.50;8.25;;;;;17.75;41.51;101839.00;4983097;28;45342;-47
2022/06/13 04:25:53;;;;;;;;;5.75;5.75;;;;;17.73;41.84;101838.16;4982880;28;45511;-50
2022/06/13 04:28:24;;;;;;;;;8.75;6.75;;;;;17.74;41.57;101845.22;4980821;28;47873;-50
2022/06/13 04:30:53;;;;;;;;;4.00;4.00;;;;;17.74;41.62;101849.69;4982166;28;45440;-48
2022/06/13 04:33:40;;;;;;;;;4.75;4.75;;;;;17.70;41.62;101844.41;4982295;28;45333;-47
2022/06/13 04:36:10;;;;;;;;;7.25;7.00;;;;;17.68;41.90;101856.00;4982634;28;45229;-47
2022/06/13 04:38:39;;;;;;;;;8.25;6.00;;;;;17.64;41.82;101847.25;4982458;28;46248;-49
2022/06/13 04:41:05;;;;;;;;;4.50;4.50;;;;;17.63;42.16;101848.16;4982604;28;45338;-47
2022/06/13 04:43:39;;;;;;;;;5.00;4.50;;;;;17.63;41.81;101841.97;4982644;28;45215;-50
2022/06/13 04:46:08;;;;;;;;;8.00;6.25;;;;;17.61;42.04;101842.03;4982272;28;45325;-50
2022/06/13 04:48:37;;;;;;;;;5.25;3.50;;;;;17.60;42.13;101845.59;4982157;28;46928;-45
2022/06/13 04:51:08;;;;;;;;;4.50;4.50;;;;;17.58;42.13;101849.19;4982276;28;45413;-48
2022/06/13 04:53:50;;;;;;;;;8.75;7.00;;;;;17.56;42.50;101857.22;4982444;28;45270;-50
2022/06/13 04:56:18;;;;;;;;;10.00;5.25;;;;;17.53;42.33;101850.19;4982289;28;45243;-48
2022/06/13 04:58:44;;;;;;;;;6.00;5.75;;;;;17.50;42.60;101852.91;4982244;28;46280;-48
2022/06/13 05:01:28;;;;;;;;;2.75;0.00;;;;;17.46;42.47;101851.25;4982179;28;45389;-48
2022/06/13 05:03:56;;;;;;;;;7.00;6.00;;;;;17.46;42.89;101853.03;4981796;28;45273;-47
2022/06/13 05:06:28;;;;;;;;;7.25;5.75;;;;;17.41;42.91;101853.16;4982215;28;45542;-48
2022/06/13 05:08:58;;;;;;;;;9.00;6.00;;;;;17.42;42.70;101859.34;4982047;28;47194;-49
2022/06/13 05:11:27;;;;;;;;;7.25;5.50;;;;;17.38;43.11;101859.44;4982121;28;45473;-50
2022/06/13 05:14:08;;;;;;;;;6.50;5.50;;;;;17.40;43.10;101870.00;4981975;28;45485;-49
2022/06/13 05:16:48;;;;;;;;;8.00;5.00;;;;;17.39;43.01;101862.94;4981918;28;45314;-47
2022/06/13 05:19:35;;;;;;;;;9.50;7.25;;;;;17.40;42.97;101861.19;4981468;28;45245;-49
2022/06/13 05:22:03;;;;;;;;;9.25;6.00;;;;;17.39;43.44;101857.63;4981907;28;45412;-49
2022/06/13 05:24:57;;;;;;;;;7.00;6.00;;;;;17.39;43.36;101857.63;4981878;28;45370;-46
2022/06/13 05:27:22;;;;;;;;;6.50;5.75;;;;;17.42;43.16;101862.88;4980472;28;45281;-48
2022/06/13 05:29:47;;;;;;;;;7.25;7.25;;;;;17.40;43.09;101856.72;4981651;28;45427;-48
2022/06/13 05:32:15;;;;;;;;;6.75;5.25;;;;;17.43;43.15;101861.94;4981899;28;45346;-49
2022/06/13 05:34:42;;;;;;;;;6.00;6.00;;;;;17.44;43.25;101863.69;4981731;28;45240;-49
2022/06/13 05:37:12;;;;;;;;;9.00;7.00;;;;;17.46;43.16;101861.88;4981508;28;45203;-47
2022/06/13 05:39:37;;;;;;;;;8.00;6.00;;;;;17.45;43.34;101861.94;4980748;28;46134;-49
2022/06/13 05:42:03;;;;;;;;;6.00;6.00;;;;;17.48;43.40;101859.19;4980931;28;45250;-51
2022/06/13 05:44:29;;;;;;;;;8.25;7.00;;;;;17.50;43.28;101868.00;4981580;28;45220;-51
2022/06/13 05:46:54;;;;;;;;;9.00;7.50;;;;;17.52;43.45;101871.47;4981394;28;47261;-49
2022/06/13 05:49:19;;;;;;;;;10.25;6.50;;;;;17.53;43.58;101883.84;4981190;28;46294;-51
2022/06/13 05:51:46;;;;;;;;;6.50;6.50;;;;;17.53;43.19;101890.06;4980966;28;45267;-51
2022/06/13 05:54:12;;;;;;;;;7.00;6.00;;;;;17.57;43.59;101882.00;4990677;28;45409;-50
2022/06/13 05:56:38;;;;;;;;;11.00;7.50;;;;;17.58;43.20;101881.94;4981411;28;45353;-50
2022/06/13 05:59:05;;;;;;;;;10.25;7.75;;;;;17.58;43.30;101881.09;4981076;28;46815;-47
2022/06/13 06:01:32;;;;;;;;;7.25;5.00;;;;;17.59;43.62;101878.38;4981131;28;45426;-47
2022/06/13 06:03:57;;;;;;;;;10.50;8.50;;;;;17.61;43.57;101881.88;4980116;28;45389;-47
2022/06/13 06:06:25;;;;;;;;;9.75;8.00;;;;;17.66;43.54;101892.38;4979701;28;45447;-48
2022/06/13 06:08:54;;;;;;;;;7.00;7.00;;;;;17.68;43.71;101899.44;4979710;28;46247;-47
2022/06/13 06:11:19;;;;;;;;;9.00;8.00;;;;;17.69;43.36;101895.84;4973782;28;45551;-49
2022/06/13 06:13:45;;;;;;;;;7.00;5.75;;;;;17.73;43.37;101893.97;4976419;28;45660;-49
2022/06/13 06:16:14;;;;;;;;;7.50;7.50;;;;;17.77;43.36;101895.63;4971130;28;45380;-51
2022/06/13 06:18:39;;;;;;;;;8.75;7.25;;;;;17.81;43.50;101899.09;4970377;28;48141;-46
2022/06/13 06:21:04;;;;;;;;;9.75;7.50;;;;;17.83;43.35;101895.47;4978732;28;45447;-46
2022/06/13 06:23:30;;;;;;;;;9.25;7.75;;;;;17.87;43.41;101910.44;4964918;28;45562;-48
2022/06/13 06:25:56;;;;;;;;;7.50;7.50;;;;;17.91;43.39;101911.25;4976755;28;45492;-50
2022/06/13 06:28:23;;;;;;;;;9.00;6.75;;;;;17.93;43.67;101908.53;4969161;28;46140;-50
2022/06/13 06:30:52;;;;;;;;;5.75;4.50;;;;;17.93;43.55;101909.41;4968215;28;45698;-49
2022/06/13 06:33:17;;;;;;;;;12.75;9.75;;;;;17.96;43.74;101912.03;4964063;28;45478;-50
2022/06/13 06:35:43;;;;;;;;;10.75;8.25;;;;;17.99;43.57;101911.94;4976226;28;45537;-52
2022/06/13 06:38:09;;;;;;;;;10.00;6.25;;;;;18.01;43.74;101909.22;4979192;28;45445;-51
2022/06/13 06:40:35;;;;;;;;;8.00;7.50;;;;;18.07;43.71;101906.41;4978012;28;45443;-51
2022/06/13 06:43:01;;;;;;;;;9.25;7.00;;;;;18.03;43.50;101896.78;4981837;28;45435;-50
2022/06/13 06:45:27;;;;;;;;;8.75;8.75;;;;;18.12;43.83;101912.47;4977667;28;45663;-52
2022/06/13 06:47:54;;;;;;;;;11.00;10.50;;;;;18.16;43.63;101903.50;4977554;28;45544;-51
2022/06/13 06:50:23;;;;;;;;;7.00;6.00;;;;;18.21;43.79;101910.47;4977912;28;45597;-51
2022/06/13 06:52:49;;;;;;;;;6.75;6.75;;;;;18.25;43.62;101914.78;4973502;28;45523;-48
2022/06/13 07:00:49;;;;;;;;;30.25;24.00;;;;;18.37;43.27;101924.25;4967117;28;45464;-48
2022/06/13 07:03:15;;;;;;;;;12.00;8.25;;;;;18.41;43.11;101931.22;4979424;28;45517;-50
2022/06/13 07:05:41;;;;;;;;;7.75;7.00;;;;;18.46;43.73;101927.50;4974325;28;45401;-51
2022/06/13 07:08:06;;;;;;;;;13.75;9.75;;;;;18.48;43.48;101916.81;4975210;28;46096;-49
2022/06/13 07:10:32;;;;;;;;;14.50;9.00;;;;;18.54;43.64;101929.06;4968697;28;45519;-49
2022/06/13 07:12:57;;;;;;;;;11.25;8.00;;;;;18.58;43.41;101928.06;4978838;28;45690;-48
2022/06/13 07:15:23;;;;;;;;;12.75;8.75;;;;;18.62;43.79;101929.72;4978841;28;45708;-46
2022/06/13 07:17:48;;;;;;;;;41.75;33.50;;;;;18.67;43.35;101927.81;4970261;28;47224;-46
2022/06/13 07:20:14;;;;;;;;;11.00;8.75;;;;;18.71;43.52;101932.09;4985387;28;45341;-49
2022/06/13 07:22:51;;;;;;;;;12.75;8.75;;;;;18.75;43.55;101923.09;4965647;28;45329;-49
2022/06/13 07:25:21;;;;;;;;;9.75;7.25;;;;;18.79;43.42;101924.78;4969249;28;45348;-49
2022/06/13 07:27:46;;;;;;;;;8.50;8.00;;;;;18.83;43.58;101929.09;4977589;28;47893;-50
2022/06/13 07:30:13;;;;;;;;;8.00;6.25;;;;;18.88;43.46;101933.38;4974459;28;45309;-50
2022/06/13 07:32:40;;;;;;;;;6.75;6.25;;;;;18.91;43.56;101928.88;4969267;28;45437;-46
2022/06/13 07:35:07;;;;;;;;;5.00;2.50;;;;;18.96;43.65;101932.28;4968708;28;45417;-48
2022/06/13 07:40:17;;;;;;;;;7.50;5.50;;;;;19.04;43.46;101931.19;4979617;28;45413;-47
2022/06/13 07:42:53;;;;;;;;;6.00;5.25;;;;;19.07;43.14;101931.97;4975644;28;45323;-51
2022/06/13 07:45:22;;;;;;;;;6.50;6.00;;;;;19.11;43.16;101936.25;4970538;28;45437;-48
2022/06/13 07:47:49;;;;;;;;;6.25;3.75;;;;;19.15;43.18;101940.56;4973472;28;45306;-50
2022/06/13 07:50:17;;;;;;;;;7.75;6.00;;;;;19.21;42.85;101938.66;4969193;28;45393;-49
2022/06/13 07:52:42;;;;;;;;;5.25;5.25;;;;;19.25;43.22;101935.81;4974893;28;45401;-47
2022/06/13 07:55:09;;;;;;;;;6.25;4.00;;;;;19.28;43.44;101943.75;4995051;28;45534;-51
2022/06/13 07:57:35;;;;;;;;;9.00;7.00;;;;;19.33;42.88;101941.78;5001182;28;45203;-48
2022/06/13 08:00:01;;;;;;;;;5.75;4.75;;;;;19.38;43.06;101948.75;4998015;28;45352;-47
2022/06/13 08:02:31;;;;;;;;;6.25;5.25;;;;;19.42;42.99;101950.41;5003810;28;45502;-50
2022/06/13 08:04:56;;;;;;;;;6.25;5.75;;;;;19.45;42.85;101948.50;4998320;28;45582;-51
2022/06/13 08:07:22;;;;;;;;;5.00;4.50;;;;;19.51;42.77;101942.13;5000942;28;46441;-50
2022/06/13 08:09:47;;;;;;;;;5.25;5.00;;;;;19.55;42.42;101943.75;4982829;28;45316;-51
2022/06/13 08:12:16;;;;;;;;;6.00;5.00;;;;;19.61;42.50;101942.69;4999551;28;45295;-49
2022/06/13 08:14:45;;;;;;;;;6.50;5.50;;;;;19.65;42.97;101947.84;4998162;28;45413;-49
2022/06/13 08:17:12;;;;;;;;;5.00;5.00;;;;;19.69;42.79;101937.97;4990992;28;45544;-49
2022/06/13 08:19:37;;;;;;;;;4.50;4.50;;;;;19.73;42.34;101938.72;4994017;28;45431;-47
2022/06/13 08:22:03;;;;;;;;;8.00;8.00;;;;;19.76;42.14;101936.84;4993005;28;45368;-50
2022/06/13 08:24:28;;;;;;;;;5.00;5.00;;;;;19.79;42.60;101942.06;4989476;28;45396;-46
2022/06/13 08:26:53;;;;;;;;;5.25;5.25;;;;;19.84;42.38;101935.75;4984590;28;45362;-48
2022/06/13 08:29:19;;;;;;;;;6.00;4.00;;;;;19.88;42.32;101940.91;4991036;28;45376;-47
2022/06/13 08:31:44;;;;;;;;;9.00;4.50;;;;;19.92;42.07;101936.34;4995244;28;45293;-49
2022/06/13 08:34:09;;;;;;;;;5.75;4.50;;;;;19.96;42.11;101937.97;4982830;28;45457;-52
2022/06/13 08:36:35;;;;;;;;;5.00;5.00;;;;;20.01;42.07;101943.16;4988139;28;46601;-49
2022/06/13 08:39:00;;;;;;;;;4.25;4.25;;;;;20.03;42.05;101936.84;4986708;28;45372;-48
2022/06/13 08:41:59;;;;;;;;;6.25;5.50;;;;;20.08;41.78;101940.22;4995584;28;45301;-49
2022/06/13 08:44:36;;;;;;;;;6.25;4.25;;;;;20.14;42.09;101939.13;4989573;28;45416;-48
2022/06/13 08:47:23;;;;;;;;;6.50;6.25;;;;;20.19;41.70;101936.28;4987140;28;46319;-50
2022/06/13 08:50:31;;;;;;;;;6.25;5.00;;;;;20.24;41.58;101939.69;4990499;28;45343;-47
2022/06/13 08:53:03;;;;;;;;;6.00;4.25;;;;;20.26;41.50;101932.47;4950599;28;45367;-48
2022/06/13 08:55:35;;;;;;;;;9.25;6.50;;;;;20.30;41.38;101936.75;4990457;28;45660;-51
2022/06/13 08:58:15;;;;;;;;;5.50;4.00;;;;;20.36;41.43;101941.03;4999545;28;45622;-50
2022/06/13 09:00:47;;;;;;;;;6.75;4.00;;;;;20.40;41.36;101943.53;4990062;28;45456;-50
2022/06/13 09:03:55;;;;;;;;;5.25;4.50;;;;;20.43;41.94;101939.88;4988057;28;45264;-51
2022/06/13 09:06:45;;;;;;;;;5.25;4.75;;;;;20.44;41.39;101942.50;4985573;28;45420;-50
2022/06/13 09:09:16;;;;;;;;;7.00;5.25;;;;;20.48;41.35;101945.91;4982275;28;45678;-47
2022/06/13 09:11:48;;;;;;;;;8.50;6.00;;;;;20.49;41.39;101939.66;4982299;28;45269;-50
2022/06/13 09:14:18;;;;;;;;;9.00;6.00;;;;;20.52;41.48;101936.84;4993717;28;45257;-48
2022/06/13 09:16:55;;;;;;;;;9.50;6.50;;;;;20.55;41.15;101927.88;4991888;28;45693;-48
2022/06/13 09:19:31;;;;;;;;;3.75;3.75;;;;;20.60;41.02;101933.91;4988375;28;45459;-49
2022/06/13 09:22:20;;;;;;;;;6.00;3.25;;;;;20.66;41.34;101952.38;4991486;28;46338;-52
2022/06/13 09:25:04;;;;;;;;;6.00;4.00;;;;;20.71;40.78;101945.06;4987680;28;45500;-49
2022/06/13 09:27:37;;;;;;;;;7.25;6.00;;;;;20.76;40.97;101939.56;4987251;28;45381;-51
2022/06/13 09:30:11;;;;;;;;;6.00;3.00;;;;;20.80;40.96;101946.53;4992743;28;47425;-48
2022/06/13 09:32:44;;;;;;;;;7.00;4.25;;;;;20.85;40.52;101938.34;4984782;28;45489;-51
2022/06/13 09:35:19;;;;;;;;;4.75;4.75;;;;;20.91;40.48;101938.13;4993420;28;45520;-49
2022/06/13 09:37:48;;;;;;;;;5.00;2.00;;;;;20.99;40.22;101948.50;4980133;28;45510;-51
2022/06/13 09:40:20;;;;;;;;;5.00;5.00;;;;;21.02;40.10;101941.25;4987290;28;46164;-47
2022/06/13 09:42:51;;;;;;;;;5.00;2.75;;;;;21.10;40.28;101952.47;4984324;28;45464;-51
2022/06/13 09:45:25;;;;;;;;;4.75;4.00;;;;;21.10;40.09;101944.47;4989357;28;45435;-49
2022/06/13 09:48:12;;;;;;;;;5.25;4.00;;;;;21.14;40.48;101945.22;4985217;28;45589;-49
2022/06/13 09:50:48;;;;;;;;;4.00;4.00;;;;;21.18;40.39;101946.84;4984090;28;45488;-48
2022/06/13 09:53:19;;;;;;;;;9.25;6.00;;;;;21.25;39.80;101942.97;4976964;28;45405;-50
2022/06/13 09:55:56;;;;;;;;;4.75;4.00;;;;;21.31;40.31;101935.63;4997018;28;45414;-50
2022/06/13 09:58:44;;;;;;;;;5.25;5.25;;;;;21.39;40.04;101941.56;4994729;28;45855;-50
2022/06/13 10:01:21;;;;;;;;;6.00;4.25;;;;;21.41;39.45;101939.72;4975976;28;46382;-50
2022/06/13 10:04:05;;;;;;;;;4.50;3.00;;;;;21.45;39.31;101940.47;4995101;28;47554;-51
2022/06/13 10:06:43;;;;;;;;;7.25;6.00;;;;;21.51;39.31;101940.16;4998323;28;45430;-50
2022/06/13 10:09:30;;;;;;;;;4.25;4.25;;;;;21.57;39.56;101940.84;4995934;28;45480;-50
2022/06/13 10:12:10;;;;;;;;;5.75;4.00;;;;;21.61;39.37;101930.00;4995439;28;46249;-50
2022/06/13 10:14:50;;;;;;;;;3.00;1.50;;;;;21.69;39.46;101931.41;4997060;28;45481;-51
2022/06/13 10:17:37;;;;;;;;;3.50;3.50;;;;;21.81;39.48;101939.84;4996805;28;45587;-52
2022/06/13 10:20:03;;;;;;;;;5.50;5.25;;;;;21.90;38.95;101934.13;4987922;28;45543;-51
2022/06/13 10:22:59;;;;;;;;;5.00;4.00;;;;;22.04;39.27;101936.22;4988416;28;46994;-51
2022/06/13 10:25:58;;;;;;;;;4.50;4.25;;;;;22.23;38.67;101928.22;4978494;28;45473;-48
2022/06/13 10:28:23;;;;;;;;;5.75;4.75;;;;;22.42;38.94;101930.13;4992730;28;45450;-50
2022/06/13 10:31:03;;;;;;;;;5.50;5.00;;;;;22.56;38.61;101935.69;4996830;28;45396;-49
2022/06/13 10:34:01;;;;;;;;;6.00;5.75;;;;;22.64;38.66;101932.66;4974971;28;45801;-50
2022/06/13 10:36:35;;;;;;;;;4.25;4.00;;;;;22.84;38.81;101934.41;4961315;28;45475;-51
2022/06/13 10:39:05;;;;;;;;;5.25;3.50;;;;;23.06;38.74;101931.59;4996440;28;45488;-51
2022/06/13 10:41:36;;;;;;;;;5.75;5.75;;;;;23.28;38.82;101923.41;4991179;28;45420;-51
2022/06/13 10:44:03;;;;;;;;;4.00;4.00;;;;;23.58;38.64;101925.47;4984154;28;46175;-49
2022/06/13 10:46:28;;;;;;;;;6.75;6.25;;;;;23.89;38.88;101925.75;4996438;28;45383;-49
2022/06/13 10:49:23;;;;;;;;;9.50;7.00;;;;;24.18;38.95;101925.09;4995329;28;45484;-49
2022/06/13 10:51:51;;;;;;;;;7.00;6.00;;;;;24.43;39.09;101914.88;4987145;28;45398;-50
2022/06/13 10:54:24;;;;;;;;;9.00;6.75;;;;;24.88;38.62;101933.91;4978002;28;46227;-49
2022/06/13 10:56:54;;;;;;;;;9.50;5.25;;;;;25.31;38.60;101928.81;4996945;28;45400;-50
2022/06/13 10:59:25;;;;;;;;;8.75;4.75;;;;;25.69;38.86;101928.38;4994736;28;45479;-53
2022/06/13 11:01:58;;;;;;;;;6.25;5.25;;;;;26.13;38.75;101928.53;4995042;28;45467;-51
2022/06/13 11:04:24;;;;;;;;;7.00;5.00;;;;;26.53;38.22;101932.28;4983693;28;45457;-50
2022/06/13 11:06:56;;;;;;;;;5.25;5.00;;;;;26.97;38.09;101924.16;4982562;28;45834;-53
2022/06/13 11:09:38;;;;;;;;;7.50;7.00;;;;;27.44;37.89;101930.09;4997492;28;45383;-47
2022/06/13 11:12:16;;;;;;;;;9.50;6.00;;;;;27.90;37.66;101922.41;4995475;28;45475;-50
2022/06/13 11:23:57;;;;;;;;;6.00;4.50;;;;;29.96;36.75;101920.97;4994888;28;45812;-48
2022/06/13 11:29:15;;;;;;;;;4.75;4.00;;;;;30.82;36.59;101927.78;4997247;28;45292;-52
2022/06/13 11:31:56;;;;;;;;;7.75;5.00;;;;;31.23;36.58;101920.78;4997202;28;45356;-52
2022/06/13 11:34:27;;;;;;;;;6.25;5.00;;;;;31.60;35.75;101926.66;4995463;28;45382;-52
2022/06/13 11:37:02;;;;;;;;;6.75;3.50;;;;;31.91;35.82;101931.34;4998068;28;46443;-50
2022/06/13 11:39:48;;;;;;;;;6.50;4.50;;;;;32.25;35.92;101917.53;4995746;28;45313;-53
2022/06/13 11:42:30;;;;;;;;;7.00;4.75;;;;;32.58;35.47;101908.22;4995856;28;45407;-51
2022/06/13 11:45:00;;;;;;;;;7.25;5.50;;;;;32.94;34.64;101913.19;4977890;28;45312;-51
2022/06/13 11:47:38;;;;;;;;;6.75;4.50;;;;;33.26;34.66;101911.19;4996815;28;45352;-49
2022/06/13 11:50:15;;;;;;;;;7.00;5.25;;;;;33.58;34.80;101916.38;4975119;28;45571;-52
2022/06/13 11:55:28;;;;;;;;;5.25;5.25;;;;;33.95;33.71;101902.00;4990255;28;45380;-52
2022/06/13 11:57:57;;;;;;;;;8.00;5.50;;;;;34.03;33.13;101912.16;4973384;28;46497;-50
2022/06/13 12:00:49;;;;;;;;;4.50;3.75;;;;;34.01;32.69;101906.88;4993035;28;45485;-50
2022/06/13 12:03:24;;;;;;;;;4.00;4.00;;;;;33.93;32.14;101911.34;4997800;28;45297;-50
2022/06/13 12:06:15;;;;;;;;;5.50;3.00;;;;;33.73;31.60;101905.91;4995760;28;45329;-49
2022/06/13 12:08:41;;;;;;;;;4.50;3.50;;;;;33.52;31.24;101903.34;4994952;28;46173;-52
2022/06/13 12:11:13;;;;;;;;;6.00;4.25;;;;;33.33;30.90;101898.78;4997244;28;45426;-53
2022/06/13 12:13:42;;;;;;;;;4.50;4.50;;;;;33.09;31.26;101893.72;4997582;28;45275;-53
2022/06/13 12:16:34;;;;;;;;;5.00;5.00;;;;;32.70;29.99;101895.34;5001235;28;45439;-52
2022/06/13 12:19:17;;;;;;;;;3.75;3.50;;;;;32.37;30.68;101897.41;4993809;28;45794;-52
2022/06/13 12:22:02;;;;;;;;;6.50;4.25;;;;;32.07;30.41;101890.94;4988517;28;45474;-53